createdAt,value
2018-03-29T00:01:25.706Z,6.70
2018-03-29T00:03:54.116Z,6.60
2018-03-29T00:06:21.818Z,6.60
2018-03-29T00:08:49.404Z,6.70
2018-03-29T00:11:17.433Z,6.60
2018-03-29T00:13:45.752Z,6.40
2018-03-29T00:16:13.513Z,6.40
2018-03-29T00:18:41.413Z,6.50
2018-03-29T00:21:08.961Z,6.50
2018-03-29T00:23:36.698Z,6.60
2018-03-29T00:26:04.288Z,6.70
2018-03-29T00:28:31.889Z,6.70
2018-03-29T00:30:59.755Z,6.70
2018-03-29T00:33:27.514Z,6.60
2018-03-29T00:35:55.189Z,6.90
2018-03-29T00:38:22.784Z,7.00
2018-03-29T00:40:50.557Z,7.10
2018-03-29T00:43:18.178Z,7.00
2018-03-29T00:45:45.854Z,7.00
2018-03-29T00:48:13.538Z,7.10
2018-03-29T00:50:41.399Z,7.00
2018-03-29T00:53:20.986Z,6.90
2018-03-29T00:55:48.557Z,6.80
2018-03-29T00:58:16.102Z,6.70
2018-03-29T01:00:44.453Z,6.80
2018-03-29T01:03:12.005Z,6.90
2018-03-29T01:05:39.673Z,6.90
2018-03-29T01:08:07.260Z,7.00
2018-03-29T01:10:34.805Z,7.00
2018-03-29T01:13:03.115Z,6.90
2018-03-29T01:15:30.954Z,6.90
2018-03-29T01:17:59.265Z,6.80
2018-03-29T01:20:26.810Z,6.80
2018-03-29T01:22:54.503Z,6.70
2018-03-29T01:25:22.101Z,6.80
2018-03-29T01:27:49.641Z,6.70
2018-03-29T01:30:17.229Z,6.60
2018-03-29T01:32:44.906Z,6.50
2018-03-29T01:35:12.757Z,6.50
2018-03-29T01:37:40.489Z,6.50
2018-03-29T01:40:08.130Z,6.40
2018-03-29T01:42:35.737Z,6.20
2018-03-29T01:45:03.493Z,6.10
2018-03-29T01:47:31.803Z,5.90
2018-03-29T01:49:59.347Z,5.90
2018-03-29T01:52:26.926Z,5.90
2018-03-29T01:54:54.657Z,6.00
2018-03-29T01:57:22.282Z,5.90
2018-03-29T01:59:50.886Z,5.80
2018-03-29T02:02:19.277Z,5.70
2018-03-29T02:04:46.942Z,5.70
2018-03-29T02:07:14.523Z,5.60
2018-03-29T02:09:42.269Z,5.50
2018-03-29T02:12:09.973Z,5.50
2018-03-29T02:14:37.910Z,5.30
2018-03-29T02:17:05.459Z,5.20
2018-03-29T02:19:33.170Z,5.10
2018-03-29T02:22:00.867Z,5.20
2018-03-29T02:24:29.173Z,5.20
2018-03-29T02:26:56.998Z,5.20
2018-03-29T02:29:26.501Z,5.30
2018-03-29T02:31:54.817Z,5.20
2018-03-29T02:34:22.377Z,5.10
2018-03-29T02:36:49.950Z,5.10
2018-03-29T02:39:17.930Z,5.10
2018-03-29T02:41:45.542Z,5.10
2018-03-29T02:44:13.251Z,5.10
2018-03-29T02:46:40.928Z,5.10
2018-03-29T02:49:08.490Z,5.10
2018-03-29T02:51:36.238Z,5.20
2018-03-29T02:54:03.785Z,5.20
2018-03-29T02:56:31.326Z,5.30
2018-03-29T02:58:59.012Z,5.60
2018-03-29T03:01:26.558Z,5.80
2018-03-29T03:03:54.113Z,5.80
2018-03-29T03:06:21.976Z,6.20
2018-03-29T03:08:49.526Z,6.20
2018-03-29T03:11:17.313Z,6.20
2018-03-29T03:13:45.010Z,6.20
2018-03-29T03:16:13.325Z,6.40
2018-03-29T03:18:40.880Z,6.30
2018-03-29T03:21:08.473Z,6.30
2018-03-29T03:23:36.013Z,6.40
2018-03-29T03:26:03.687Z,6.50
2018-03-29T03:28:31.382Z,6.40
2018-03-29T03:30:59.985Z,6.50
2018-03-29T03:33:27.538Z,6.50
2018-03-29T03:35:55.346Z,6.60
2018-03-29T03:38:23.221Z,6.60
2018-03-29T03:40:51.085Z,6.50
2018-03-29T03:43:18.667Z,6.50
2018-03-29T03:45:46.992Z,6.70
2018-03-29T03:48:14.538Z,6.60
2018-03-29T03:50:42.726Z,6.70
2018-03-29T03:53:10.645Z,6.70
2018-03-29T03:55:38.955Z,6.60
2018-03-29T03:58:06.570Z,6.50
2018-03-29T04:00:34.426Z,6.50
2018-03-29T04:03:02.017Z,6.40
2018-03-29T04:05:29.951Z,6.30
2018-03-29T04:07:57.606Z,6.50
2018-03-29T04:10:25.301Z,6.80
2018-03-29T04:12:53.838Z,6.60
2018-03-29T04:15:21.397Z,6.60
2018-03-29T04:17:48.941Z,6.40
2018-03-29T04:20:16.733Z,6.30
2018-03-29T04:22:44.276Z,6.20
2018-03-29T04:25:11.828Z,6.10
2018-03-29T04:27:39.490Z,6.30
2018-03-29T04:30:07.041Z,6.50
2018-03-29T04:32:34.786Z,6.50
2018-03-29T04:35:02.374Z,6.50
2018-03-29T04:37:30.298Z,6.50
2018-03-29T04:39:57.837Z,6.40
2018-03-29T04:42:26.342Z,6.80
2018-03-29T04:44:54.158Z,6.80
2018-03-29T04:47:21.975Z,7.10
2018-03-29T04:49:49.689Z,7.10
2018-03-29T04:52:17.244Z,7.00
2018-03-29T04:54:44.960Z,6.90
2018-03-29T04:57:12.919Z,7.00
2018-03-29T04:59:40.681Z,7.00
2018-03-29T05:02:08.777Z,7.10
2018-03-29T05:04:36.681Z,7.30
2018-03-29T05:07:04.333Z,7.40
2018-03-29T05:09:32.081Z,7.30
2018-03-29T05:11:59.682Z,7.00
2018-03-29T05:14:28.009Z,7.00
2018-03-29T05:16:55.793Z,7.00
2018-03-29T05:19:23.399Z,7.00
2018-03-29T05:21:51.461Z,7.00
2018-03-29T05:24:19.185Z,7.00
2018-03-29T05:26:49.561Z,6.90
2018-03-29T05:29:17.119Z,6.90
2018-03-29T05:31:44.778Z,6.80
2018-03-29T05:34:12.474Z,6.70
2018-03-29T05:36:40.114Z,6.50
2018-03-29T05:39:07.717Z,6.40
2018-03-29T05:41:35.501Z,6.40
2018-03-29T05:44:04.161Z,6.40
2018-03-29T05:46:31.714Z,6.40
2018-03-29T05:48:59.518Z,6.40
2018-03-29T05:51:27.906Z,6.30
2018-03-29T05:53:55.453Z,6.30
2018-03-29T05:56:24.141Z,6.50
2018-03-29T05:58:52.455Z,6.70
2018-03-29T06:01:20.032Z,6.70
2018-03-29T06:03:47.626Z,6.90
2018-03-29T06:06:15.317Z,7.00
2018-03-29T06:08:42.883Z,7.10
2018-03-29T06:11:11.085Z,7.20
2018-03-29T06:13:40.521Z,7.40
2018-03-29T06:16:08.085Z,7.60
2018-03-29T06:18:36.499Z,8.10
2018-03-29T06:21:04.981Z,8.50
2018-03-29T06:23:32.819Z,8.50
2018-03-29T06:26:00.402Z,8.80
2018-03-29T06:28:28.141Z,8.90
2018-03-29T06:30:55.689Z,8.90
2018-03-29T06:33:24.337Z,8.50
2018-03-29T06:35:52.134Z,8.50
2018-03-29T06:38:19.680Z,8.50
2018-03-29T06:40:48.045Z,8.50
2018-03-29T06:43:16.154Z,8.50
2018-03-29T06:45:43.835Z,8.50
2018-03-29T06:48:11.526Z,8.60
2018-03-29T06:50:39.186Z,8.60
2018-03-29T06:53:06.742Z,8.60
2018-03-29T06:55:34.510Z,8.60
2018-03-29T06:58:02.353Z,8.60
2018-03-29T07:00:29.986Z,8.60
2018-03-29T07:02:57.703Z,8.70
2018-03-29T07:05:25.261Z,8.80
2018-03-29T07:07:53.583Z,9.00
2018-03-29T07:10:21.163Z,9.00
2018-03-29T07:12:49.153Z,9.20
2018-03-29T07:15:16.849Z,9.30
2018-03-29T07:17:45.352Z,9.40
2018-03-29T07:20:12.906Z,9.40
2018-03-29T07:22:40.471Z,9.50
2018-03-29T07:25:08.048Z,9.40
2018-03-29T07:27:35.597Z,9.40
2018-03-29T07:30:03.334Z,9.20
2018-03-29T07:32:30.930Z,9.20
2018-03-29T07:34:58.740Z,9.20
2018-03-29T07:37:26.590Z,9.20
2018-03-29T07:39:54.294Z,9.20
2018-03-29T07:42:21.848Z,9.20
2018-03-29T07:44:49.536Z,9.20
2018-03-29T07:47:17.223Z,9.20
2018-03-29T07:49:44.846Z,9.20
2018-03-29T07:52:12.562Z,9.40
2018-03-29T07:54:40.173Z,9.60
2018-03-29T07:57:07.718Z,9.70
2018-03-29T07:59:35.300Z,9.60
2018-03-29T08:02:02.916Z,9.70
2018-03-29T08:04:30.478Z,9.70
2018-03-29T08:06:58.954Z,9.50
2018-03-29T08:09:27.342Z,9.50
2018-03-29T08:11:54.889Z,9.50
2018-03-29T08:14:23.207Z,9.70
2018-03-29T08:16:50.871Z,9.70
2018-03-29T08:19:18.447Z,9.80
2018-03-29T08:21:46.130Z,9.80
2018-03-29T08:24:13.684Z,10.00
2018-03-29T08:26:41.245Z,10.00
2018-03-29T08:29:08.807Z,10.10
2018-03-29T08:31:36.403Z,10.10
2018-03-29T08:34:03.993Z,10.10
2018-03-29T08:36:31.542Z,10.10
2018-03-29T08:38:59.343Z,10.30
2018-03-29T08:41:26.898Z,10.40
2018-03-29T08:43:54.454Z,10.60
2018-03-29T08:46:22.209Z,10.70
2018-03-29T08:48:50.123Z,10.60
2018-03-29T08:51:17.833Z,10.80
2018-03-29T08:53:45.429Z,10.70
2018-03-29T08:56:13.314Z,10.90
2018-03-29T08:58:40.869Z,11.00
2018-03-29T09:01:09.556Z,10.90
2018-03-29T09:03:37.172Z,10.90
2018-03-29T09:06:04.725Z,10.70
2018-03-29T09:08:32.310Z,10.60
2018-03-29T09:10:59.921Z,10.60
2018-03-29T09:13:27.466Z,10.70
2018-03-29T09:15:55.282Z,10.60
2018-03-29T09:18:22.898Z,10.70
2018-03-29T09:20:50.563Z,10.40
2018-03-29T09:23:18.253Z,10.50
2018-03-29T09:25:45.906Z,10.50
2018-03-29T09:28:13.733Z,10.30
2018-03-29T09:30:41.513Z,10.40
2018-03-29T09:33:09.347Z,10.60
2018-03-29T09:35:36.986Z,10.60
2018-03-29T09:38:04.598Z,10.20
2018-03-29T09:40:32.154Z,10.10
2018-03-29T09:43:00.125Z,10.40
2018-03-29T09:45:27.734Z,10.40
2018-03-29T09:47:55.576Z,10.80
2018-03-29T09:50:23.520Z,10.90
2018-03-29T09:52:51.117Z,11.00
2018-03-29T09:55:18.684Z,10.70
2018-03-29T09:57:47.581Z,10.20
2018-03-29T10:00:16.400Z,10.30
2018-03-29T10:02:49.864Z,10.20
2018-03-29T10:05:18.352Z,10.10
2018-03-29T10:07:46.772Z,10.00
2018-03-29T10:10:15.279Z,10.20
2018-03-29T10:12:43.050Z,10.20
2018-03-29T10:15:10.622Z,10.20
2018-03-29T10:17:39.021Z,10.10
2018-03-29T10:20:06.602Z,10.10
2018-03-29T10:22:34.154Z,10.10
2018-03-29T10:25:02.046Z,10.00
2018-03-29T10:27:29.659Z,9.90
2018-03-29T10:29:57.370Z,9.90
2018-03-29T10:32:24.918Z,9.60
2018-03-29T10:34:52.512Z,9.60
2018-03-29T10:37:20.165Z,9.60
2018-03-29T10:39:47.730Z,9.40
2018-03-29T10:42:15.518Z,9.30
2018-03-29T10:44:43.354Z,9.20
2018-03-29T10:47:11.010Z,9.30
2018-03-29T10:49:38.873Z,9.10
2018-03-29T10:52:06.679Z,9.10
2018-03-29T10:54:34.246Z,9.20
2018-03-29T10:57:01.855Z,8.80
2018-03-29T10:59:29.419Z,8.70
2018-03-29T11:01:57.130Z,8.80
2018-03-29T11:04:24.711Z,8.80
2018-03-29T11:06:52.269Z,8.80
2018-03-29T11:09:20.097Z,8.80
2018-03-29T11:11:48.039Z,8.90
2018-03-29T11:14:15.599Z,9.00
2018-03-29T11:16:43.158Z,8.90
2018-03-29T11:19:11.201Z,9.00
2018-03-29T11:21:39.037Z,9.00
2018-03-29T11:24:06.965Z,8.70
2018-03-29T11:26:35.342Z,8.70
2018-03-29T11:29:03.054Z,8.70
2018-03-29T11:31:30.763Z,8.80
2018-03-29T11:33:58.813Z,8.80
2018-03-29T11:36:26.377Z,8.90
2018-03-29T11:38:53.936Z,8.90
2018-03-29T11:41:21.837Z,8.80
2018-03-29T11:43:50.474Z,8.50
2018-03-29T11:46:18.338Z,8.50
2018-03-29T11:48:45.960Z,8.60
2018-03-29T11:51:13.563Z,8.70
2018-03-29T11:53:41.598Z,8.90
2018-03-29T11:56:09.348Z,9.00
2018-03-29T11:58:37.269Z,9.10
2018-03-29T12:01:04.821Z,9.40
2018-03-29T12:03:32.410Z,9.40
2018-03-29T12:06:01.069Z,9.50
2018-03-29T12:08:28.905Z,9.50
2018-03-29T12:10:56.590Z,9.50
2018-03-29T12:13:24.143Z,9.60
2018-03-29T12:15:51.688Z,9.70
2018-03-29T12:18:19.623Z,9.50
2018-03-29T12:20:47.260Z,9.70
2018-03-29T12:23:16.095Z,10.20
2018-03-29T12:25:43.727Z,10.20
2018-03-29T12:28:11.470Z,10.40
2018-03-29T12:30:39.796Z,10.60
2018-03-29T12:33:07.790Z,10.60
2018-03-29T12:35:35.453Z,11.10
2018-03-29T12:38:03.002Z,11.70
2018-03-29T12:40:30.765Z,11.90
2018-03-29T12:42:58.447Z,10.50
2018-03-29T12:45:26.000Z,10.80
2018-03-29T12:47:53.586Z,10.90
2018-03-29T12:50:22.013Z,12.20
2018-03-29T12:52:49.668Z,12.20
2018-03-29T12:55:29.317Z,11.70
2018-03-29T12:58:10.693Z,11.90
2018-03-29T13:00:38.473Z,11.50
2018-03-29T13:03:06.139Z,11.10
2018-03-29T13:05:33.867Z,11.20
2018-03-29T13:08:01.496Z,11.40
2018-03-29T13:10:29.954Z,11.50
2018-03-29T13:12:57.534Z,11.50
2018-03-29T13:15:25.326Z,11.90
2018-03-29T13:17:52.981Z,11.90
2018-03-29T13:20:21.657Z,11.90
2018-03-29T13:22:49.301Z,11.90
2018-03-29T13:25:17.768Z,12.30
2018-03-29T13:27:46.107Z,12.90
2018-03-29T13:30:13.900Z,12.90
2018-03-29T13:32:41.442Z,12.50
2018-03-29T13:35:08.999Z,12.30
2018-03-29T13:37:36.608Z,12.40
2018-03-29T13:40:04.389Z,12.00
2018-03-29T13:42:32.050Z,11.80
2018-03-29T13:44:59.799Z,11.60
2018-03-29T13:47:27.354Z,11.10
2018-03-29T13:49:54.929Z,11.00
2018-03-29T13:52:22.519Z,11.00
2018-03-29T13:54:50.122Z,11.00
2018-03-29T13:57:18.951Z,11.30
2018-03-29T13:59:46.914Z,11.30
2018-03-29T14:02:14.551Z,11.20
2018-03-29T14:04:42.338Z,11.50
2018-03-29T14:07:10.447Z,11.50
2018-03-29T14:09:38.537Z,11.60
2018-03-29T14:12:07.133Z,11.50
2018-03-29T14:14:34.885Z,11.40
2018-03-29T14:17:02.725Z,11.20
2018-03-29T14:19:30.471Z,11.00
2018-03-29T14:21:58.251Z,11.00
2018-03-29T14:24:25.794Z,11.00
2018-03-29T14:26:53.634Z,10.80
2018-03-29T14:29:21.258Z,11.00
2018-03-29T14:31:49.658Z,10.90
2018-03-29T14:34:17.214Z,10.90
2018-03-29T14:36:44.866Z,10.90
2018-03-29T14:39:12.799Z,10.70
2018-03-29T14:41:40.358Z,10.80
2018-03-29T14:44:08.753Z,10.60
2018-03-29T14:46:36.490Z,10.60
2018-03-29T14:49:04.066Z,10.50
2018-03-29T14:51:31.649Z,10.70
2018-03-29T14:53:59.970Z,10.80
2018-03-29T14:56:27.925Z,10.80
2018-03-29T14:58:55.618Z,10.80
2018-03-29T15:01:23.343Z,10.80
2018-03-29T15:03:51.121Z,11.00
2018-03-29T15:06:18.995Z,10.90
2018-03-29T15:08:46.640Z,11.00
2018-03-29T15:11:14.196Z,11.00
2018-03-29T15:13:41.823Z,11.20
2018-03-29T15:16:10.455Z,11.40
2018-03-29T15:18:38.143Z,11.40
2018-03-29T15:21:07.028Z,10.90
2018-03-29T15:23:34.602Z,10.90
2018-03-29T15:26:02.184Z,10.30
2018-03-29T15:28:29.868Z,10.30
2018-03-29T15:30:57.438Z,10.20
2018-03-29T15:33:25.027Z,10.00
2018-03-29T15:35:53.257Z,10.00
2018-03-29T15:38:21.011Z,9.90
2018-03-29T15:40:49.305Z,9.90
2018-03-29T15:43:17.466Z,9.90
2018-03-29T15:45:45.042Z,9.90
2018-03-29T15:48:12.735Z,9.90
2018-03-29T15:50:40.342Z,9.90
2018-03-29T15:53:07.924Z,9.80
2018-03-29T15:55:35.497Z,9.80
2018-03-29T15:58:03.193Z,9.70
2018-03-29T16:00:31.600Z,9.50
2018-03-29T16:02:59.266Z,9.50
2018-03-29T16:05:27.011Z,9.60
2018-03-29T16:07:55.323Z,9.40
2018-03-29T16:10:22.889Z,9.50
2018-03-29T16:12:50.855Z,9.50
2018-03-29T16:15:18.443Z,9.40
2018-03-29T16:17:45.995Z,9.30
2018-03-29T16:20:15.094Z,9.00
2018-03-29T16:22:42.876Z,9.00
2018-03-29T16:25:11.541Z,8.90
2018-03-29T16:27:40.060Z,8.80
2018-03-29T16:30:07.610Z,8.80
2018-03-29T16:32:35.161Z,8.70
2018-03-29T16:35:03.592Z,8.70
2018-03-29T16:37:31.456Z,8.70
2018-03-29T16:39:59.323Z,8.50
2018-03-29T16:42:26.946Z,8.50
2018-03-29T16:44:54.501Z,8.40
2018-03-29T16:47:22.106Z,8.40
2018-03-29T16:49:50.113Z,8.30
2018-03-29T16:52:17.916Z,8.20
2018-03-29T16:54:45.655Z,8.20
2018-03-29T16:57:13.265Z,8.10
2018-03-29T16:59:40.821Z,8.00
2018-03-29T17:02:09.851Z,8.00
2018-03-29T17:04:37.586Z,8.00
2018-03-29T17:07:05.279Z,8.00
2018-03-29T17:09:33.640Z,8.00
2018-03-29T17:12:01.630Z,7.90
2018-03-29T17:14:29.309Z,7.80
2018-03-29T17:16:56.906Z,7.70
2018-03-29T17:19:24.619Z,7.70
2018-03-29T17:21:52.388Z,7.80
2018-03-29T17:24:19.956Z,7.70
2018-03-29T17:26:47.790Z,7.60
2018-03-29T17:29:15.387Z,7.60
2018-03-29T17:31:43.238Z,7.60
2018-03-29T17:34:10.826Z,7.50
2018-03-29T17:36:38.630Z,7.50
2018-03-29T17:39:06.954Z,7.40
2018-03-29T17:41:34.918Z,7.40
2018-03-29T17:44:02.490Z,7.30
2018-03-29T17:46:30.072Z,7.20
2018-03-29T17:48:57.792Z,7.20
2018-03-29T17:51:25.478Z,7.10
2018-03-29T17:53:53.191Z,7.10
2018-03-29T17:56:21.126Z,7.00
2018-03-29T17:58:48.703Z,7.00
2018-03-29T18:01:16.454Z,7.00
2018-03-29T18:03:44.554Z,7.00
2018-03-29T18:06:12.140Z,7.00
2018-03-29T18:08:40.047Z,6.90
2018-03-29T18:11:07.853Z,6.80
2018-03-29T18:13:35.427Z,6.80
2018-03-29T18:16:03.192Z,6.80
2018-03-29T18:18:30.874Z,6.90
2018-03-29T18:20:58.530Z,6.80
2018-03-29T18:23:26.216Z,6.80
2018-03-29T18:25:53.838Z,6.70
2018-03-29T18:28:21.511Z,6.70
2018-03-29T18:30:49.157Z,6.60
2018-03-29T18:33:17.536Z,6.50
2018-03-29T18:35:45.378Z,6.50
2018-03-29T18:38:13.059Z,6.50
2018-03-29T18:40:40.716Z,6.40
2018-03-29T18:43:08.318Z,6.40
2018-03-29T18:45:36.045Z,6.40
2018-03-29T18:48:04.012Z,6.30
2018-03-29T18:50:32.072Z,6.30
2018-03-29T18:53:01.177Z,6.30
2018-03-29T18:55:29.203Z,6.30
2018-03-29T18:57:57.305Z,6.30
2018-03-29T19:00:25.187Z,6.20
2018-03-29T19:02:52.985Z,6.20
2018-03-29T19:05:21.036Z,6.20
2018-03-29T19:07:48.970Z,6.20
2018-03-29T19:10:16.625Z,6.20
2018-03-29T19:12:44.366Z,6.20
2018-03-29T19:15:12.993Z,6.10
2018-03-29T19:17:40.686Z,6.10
2018-03-29T19:20:08.261Z,6.10
2018-03-29T19:22:35.843Z,6.10
2018-03-29T19:25:03.488Z,6.00
2018-03-29T19:27:32.117Z,5.90
2018-03-29T19:29:59.686Z,5.80
2018-03-29T19:32:27.311Z,5.80
2018-03-29T19:34:54.874Z,5.80
2018-03-29T19:37:22.440Z,5.70
2018-03-29T19:39:50.322Z,5.70
2018-03-29T19:42:18.054Z,5.60
2018-03-29T19:44:45.618Z,5.50
2018-03-29T19:47:13.240Z,5.50
2018-03-29T19:49:40.843Z,5.40
2018-03-29T19:52:08.411Z,5.40
2018-03-29T19:54:36.019Z,5.30
2018-03-29T19:57:04.487Z,5.20
2018-03-29T19:59:32.038Z,5.20
2018-03-29T20:01:59.625Z,5.10
2018-03-29T20:04:27.970Z,5.00
2018-03-29T20:06:55.615Z,5.10
2018-03-29T20:09:23.541Z,5.00
2018-03-29T20:11:51.138Z,5.00
2018-03-29T20:14:18.899Z,5.00
2018-03-29T20:16:46.593Z,4.80
2018-03-29T20:19:14.221Z,4.70
2018-03-29T20:21:41.799Z,4.60
2018-03-29T20:24:09.543Z,4.60
2018-03-29T20:26:37.200Z,4.60
2018-03-29T20:29:04.973Z,4.60
2018-03-29T20:31:32.581Z,4.60
2018-03-29T20:34:00.931Z,4.60
2018-03-29T20:36:28.712Z,4.50
2018-03-29T20:38:57.112Z,4.40
2018-03-29T20:41:24.669Z,4.40
2018-03-29T20:43:52.469Z,4.40
2018-03-29T20:46:20.061Z,4.40
2018-03-29T20:48:47.630Z,4.30
2018-03-29T20:51:15.953Z,4.30
2018-03-29T20:53:43.930Z,4.30
2018-03-29T20:56:11.506Z,4.20
2018-03-29T20:58:39.245Z,4.20
2018-03-29T21:01:06.842Z,4.10
2018-03-29T21:03:34.416Z,4.10
2018-03-29T21:06:03.252Z,3.90
2018-03-29T21:08:30.957Z,4.00
2018-03-29T21:10:58.597Z,4.00
2018-03-29T21:13:26.189Z,4.10
2018-03-29T21:15:53.791Z,4.10
2018-03-29T21:18:21.966Z,4.10
2018-03-29T21:20:49.718Z,4.20
2018-03-29T21:23:17.510Z,4.20
2018-03-29T21:25:45.137Z,4.10
2018-03-29T21:28:12.697Z,4.00
2018-03-29T21:30:40.289Z,4.10
2018-03-29T21:33:08.107Z,4.10
2018-03-29T21:35:35.678Z,3.90
2018-03-29T21:38:03.456Z,3.90
2018-03-29T21:40:31.179Z,4.00
2018-03-29T21:42:59.514Z,4.00
2018-03-29T21:45:27.130Z,4.00
2018-03-29T21:47:54.680Z,3.90
2018-03-29T21:50:22.225Z,3.90
2018-03-29T21:52:50.576Z,3.90
2018-03-29T21:55:18.137Z,3.90
2018-03-29T21:57:45.719Z,4.00
2018-03-29T22:00:13.330Z,3.90
2018-03-29T22:02:41.052Z,3.90
2018-03-29T22:05:08.617Z,3.90
2018-03-29T22:07:36.613Z,3.80
2018-03-29T22:10:04.654Z,3.80
2018-03-29T22:12:32.222Z,3.90
2018-03-29T22:15:00.092Z,3.90
2018-03-29T22:17:27.647Z,3.80
2018-03-29T22:19:55.201Z,3.80
2018-03-29T22:22:23.026Z,3.80
2018-03-29T22:24:50.715Z,3.90
2018-03-29T22:27:18.287Z,3.90
2018-03-29T22:29:45.879Z,4.00
2018-03-29T22:32:13.485Z,3.90
2018-03-29T22:34:41.998Z,3.80
2018-03-29T22:37:09.918Z,3.80
2018-03-29T22:39:37.473Z,3.90
2018-03-29T22:42:05.927Z,3.80
2018-03-29T22:44:33.515Z,3.80
2018-03-29T22:47:01.058Z,3.80
2018-03-29T22:49:28.666Z,3.80
2018-03-29T22:51:56.259Z,3.70
2018-03-29T22:54:23.807Z,3.70
2018-03-29T22:56:51.363Z,3.70
2018-03-29T22:59:19.370Z,3.70
2018-03-29T23:01:46.919Z,3.80
2018-03-29T23:04:14.468Z,3.80
2018-03-29T23:06:42.050Z,3.70
2018-03-29T23:09:09.594Z,3.70
2018-03-29T23:11:37.265Z,3.80
2018-03-29T23:14:04.821Z,3.60
2018-03-29T23:16:32.366Z,3.70
2018-03-29T23:18:59.958Z,3.80
2018-03-29T23:21:27.561Z,3.80
2018-03-29T23:23:55.545Z,3.80
2018-03-29T23:26:23.094Z,3.70
2018-03-29T23:28:50.735Z,3.70
2018-03-29T23:31:18.278Z,3.80
2018-03-29T23:33:45.997Z,3.80
2018-03-29T23:36:13.582Z,3.80
2018-03-29T23:38:41.310Z,3.90
2018-03-29T23:41:09.670Z,3.70
2018-03-29T23:43:37.494Z,3.70
2018-03-29T23:46:05.938Z,3.80
2018-03-29T23:48:33.545Z,3.80
2018-03-29T23:51:01.128Z,3.70
2018-03-29T23:53:29.074Z,3.70
2018-03-29T23:55:56.618Z,3.60
2018-03-29T23:58:25.110Z,3.60
